sensor_id;sensor_type;location;lat;lon;timestamp;pressure;altitude;pressure_sealevel;temperature;humidity
47726;BME280;33483;48.294;16.388;2023-04-08T00:01:44;99634.84;;;3.57;100.00
47726;BME280;33483;48.294;16.388;2023-04-08T00:04:11;99630.13;;;3.57;100.00
47726;BME280;33483;48.294;16.388;2023-04-08T00:06:40;99628.78;;;3.53;100.00
47726;BME280;33483;48.294;16.388;2023-04-08T00:09:07;99638.81;;;3.56;100.00
47726;BME280;33483;48.294;16.388;2023-04-08T00:11:41;99640.16;;;3.45;100.00
47726;BME280;33483;48.294;16.388;2023-04-08T00:14:08;99637.19;;;3.29;100.00
47726;BME280;33483;48.294;16.388;2023-04-08T00:16:38;99643.25;;;3.18;100.00
47726;BME280;33483;48.294;16.388;2023-04-08T00:19:05;99641.38;;;3.10;100.00
47726;BME280;33483;48.294;16.388;2023-04-08T00:21:32;99633.34;;;3.06;100.00
47726;BME280;33483;48.294;16.388;2023-04-08T00:24:00;99637.59;;;3.07;100.00
47726;BME280;33483;48.294;16.388;2023-04-08T00:26:29;99641.75;;;3.03;100.00
47726;BME280;33483;48.294;16.388;2023-04-08T00:28:57;99634.94;;;2.98;100.00
47726;BME280;33483;48.294;16.388;2023-04-08T00:31:27;99638.25;;;3.02;100.00
47726;BME280;33483;48.294;16.388;2023-04-08T00:33:54;99651.47;;;3.04;100.00
47726;BME280;33483;48.294;16.388;2023-04-08T00:36:22;99639.69;;;2.98;100.00
47726;BME280;33483;48.294;16.388;2023-04-08T00:38:51;99647.63;;;2.96;100.00
47726;BME280;33483;48.294;16.388;2023-04-08T00:41:18;99644.59;;;2.94;100.00
47726;BME280;33483;48.294;16.388;2023-04-08T00:43:46;99650.72;;;2.89;100.00
47726;BME280;33483;48.294;16.388;2023-04-08T00:46:15;99647.41;;;2.85;100.00
47726;BME280;33483;48.294;16.388;2023-04-08T00:48:42;99648.47;;;2.73;100.00
47726;BME280;33483;48.294;16.388;2023-04-08T00:51:11;99651.38;;;2.69;100.00
47726;BME280;33483;48.294;16.388;2023-04-08T00:53:42;99647.81;;;2.63;100.00
47726;BME280;33483;48.294;16.388;2023-04-08T00:56:10;99653.91;;;2.58;100.00
47726;BME280;33483;48.294;16.388;2023-04-08T00:58:38;99648.38;;;2.53;100.00
47726;BME280;33483;48.294;16.388;2023-04-08T01:01:06;99656.81;;;2.55;100.00
47726;BME280;33483;48.294;16.388;2023-04-08T01:03:56;99651.28;;;2.49;100.00
47726;BME280;33483;48.294;16.388;2023-04-08T01:06:29;99651.19;;;2.44;100.00
47726;BME280;33483;48.294;16.388;2023-04-08T01:08:59;99657.84;;;2.43;100.00
47726;BME280;33483;48.294;16.388;2023-04-08T01:11:27;99651.84;;;2.39;100.00
47726;BME280;33483;48.294;16.388;2023-04-08T01:13:55;99646.66;;;2.41;100.00
47726;BME280;33483;48.294;16.388;2023-04-08T01:16:23;99649.66;;;2.43;100.00
47726;BME280;33483;48.294;16.388;2023-04-08T01:18:52;99659.09;;;2.42;100.00
47726;BME280;33483;48.294;16.388;2023-04-08T01:21:22;99654.38;;;2.42;100.00
47726;BME280;33483;48.294;16.388;2023-04-08T01:24:07;99648.34;;;2.38;100.00
47726;BME280;33483;48.294;16.388;2023-04-08T01:26:45;99650.56;;;2.25;100.00
47726;BME280;33483;48.294;16.388;2023-04-08T01:29:15;99646.91;;;2.28;100.00
47726;BME280;33483;48.294;16.388;2023-04-08T01:31:45;99649.81;;;2.24;100.00
47726;BME280;33483;48.294;16.388;2023-04-08T01:34:13;99647.56;;;2.23;100.00
47726;BME280;33483;48.294;16.388;2023-04-08T01:36:43;99654.13;;;2.16;100.00
47726;BME280;33483;48.294;16.388;2023-04-08T01:39:13;99655.06;;;2.13;100.00
47726;BME280;33483;48.294;16.388;2023-04-08T01:41:45;99652.56;;;2.01;100.00
47726;BME280;33483;48.294;16.388;2023-04-08T01:44:14;99657.66;;;1.93;100.00
47726;BME280;33483;48.294;16.388;2023-04-08T01:46:43;99650.31;;;1.76;100.00
47726;BME280;33483;48.294;16.388;2023-04-08T01:49:11;99656.25;;;1.74;100.00
47726;BME280;33483;48.294;16.388;2023-04-08T01:51:38;99659.59;;;1.69;100.00
47726;BME280;33483;48.294;16.388;2023-04-08T01:54:07;99658.28;;;1.65;100.00
47726;BME280;33483;48.294;16.388;2023-04-08T01:56:36;99657.28;;;1.53;100.00
47726;BME280;33483;48.294;16.388;2023-04-08T01:59:05;99655.75;;;1.52;100.00
47726;BME280;33483;48.294;16.388;2023-04-08T02:01:35;99659.59;;;1.46;100.00
47726;BME280;33483;48.294;16.388;2023-04-08T02:04:03;99652.78;;;1.41;100.00
47726;BME280;33483;48.294;16.388;2023-04-08T02:06:32;99655.88;;;1.34;100.00
47726;BME280;33483;48.294;16.388;2023-04-08T02:09:00;99651.47;;;1.28;100.00
47726;BME280;33483;48.294;16.388;2023-04-08T02:11:28;99652.88;;;1.23;100.00
47726;BME280;33483;48.294;16.388;2023-04-08T02:13:55;99653.63;;;1.24;100.00
47726;BME280;33483;48.294;16.388;2023-04-08T02:19:01;99661.81;;;1.24;100.00
47726;BME280;33483;48.294;16.388;2023-04-08T02:21:43;99658.94;;;1.18;100.00
47726;BME280;33483;48.294;16.388;2023-04-08T02:24:15;99662.88;;;1.17;100.00
47726;BME280;33483;48.294;16.388;2023-04-08T02:26:43;99666.53;;;1.14;100.00
47726;BME280;33483;48.294;16.388;2023-04-08T02:29:12;99660.63;;;1.15;100.00
47726;BME280;33483;48.294;16.388;2023-04-08T02:31:41;99666.25;;;1.12;100.00
47726;BME280;33483;48.294;16.388;2023-04-08T02:34:09;99662.00;;;1.11;100.00
47726;BME280;33483;48.294;16.388;2023-04-08T02:36:37;99665.03;;;1.13;100.00
47726;BME280;33483;48.294;16.388;2023-04-08T02:39:10;99661.53;;;1.12;100.00
47726;BME280;33483;48.294;16.388;2023-04-08T02:41:38;99658.34;;;1.14;100.00
47726;BME280;33483;48.294;16.388;2023-04-08T02:44:05;99673.81;;;1.17;100.00
47726;BME280;33483;48.294;16.388;2023-04-08T02:46:32;99664.41;;;1.18;100.00
47726;BME280;33483;48.294;16.388;2023-04-08T02:49:01;99660.16;;;1.17;100.00
47726;BME280;33483;48.294;16.388;2023-04-08T02:51:29;99668.34;;;1.17;100.00
47726;BME280;33483;48.294;16.388;2023-04-08T02:53:57;99667.78;;;1.13;100.00
47726;BME280;33483;48.294;16.388;2023-04-08T02:56:25;99662.16;;;1.17;100.00
47726;BME280;33483;48.294;16.388;2023-04-08T02:58:52;99664.97;;;1.22;100.00
47726;BME280;33483;48.294;16.388;2023-04-08T03:01:20;99662.25;;;1.22;100.00
47726;BME280;33483;48.294;16.388;2023-04-08T03:03:47;99671.66;;;1.21;100.00
47726;BME280;33483;48.294;16.388;2023-04-08T03:06:15;99670.50;;;1.13;100.00
47726;BME280;33483;48.294;16.388;2023-04-08T03:08:42;99666.38;;;1.17;100.00
47726;BME280;33483;48.294;16.388;2023-04-08T03:11:09;99668.06;;;1.15;100.00
47726;BME280;33483;48.294;16.388;2023-04-08T03:13:37;99669.91;;;1.09;100.00
47726;BME280;33483;48.294;16.388;2023-04-08T03:16:04;99672.47;;;1.12;100.00
47726;BME280;33483;48.294;16.388;2023-04-08T03:18:32;99663.19;;;1.19;100.00
47726;BME280;33483;48.294;16.388;2023-04-08T03:20:59;99665.91;;;1.19;100.00
47726;BME280;33483;48.294;16.388;2023-04-08T03:23:29;99668.06;;;1.15;100.00
47726;BME280;33483;48.294;16.388;2023-04-08T03:25:56;99669.91;;;1.09;100.00
47726;BME280;33483;48.294;16.388;2023-04-08T03:28:23;99666.25;;;1.12;100.00
47726;BME280;33483;48.294;16.388;2023-04-08T03:30:50;99679.31;;;1.08;100.00
47726;BME280;33483;48.294;16.388;2023-04-08T03:33:17;99674.44;;;1.03;100.00
47726;BME280;33483;48.294;16.388;2023-04-08T03:35:45;99666.72;;;1.01;100.00
47726;BME280;33483;48.294;16.388;2023-04-08T03:38:12;99674.50;;;0.94;100.00
47726;BME280;33483;48.294;16.388;2023-04-08T03:40:39;99667.81;;;0.95;100.00
47726;BME280;33483;48.294;16.388;2023-04-08T03:43:06;99671.59;;;0.97;100.00
47726;BME280;33483;48.294;16.388;2023-04-08T03:45:34;99675.38;;;1.00;100.00
47726;BME280;33483;48.294;16.388;2023-04-08T03:48:02;99672.94;;;1.02;100.00
47726;BME280;33483;48.294;16.388;2023-04-08T03:50:29;99679.16;;;1.02;100.00
47726;BME280;33483;48.294;16.388;2023-04-08T03:52:57;99671.16;;;0.99;100.00
47726;BME280;33483;48.294;16.388;2023-04-08T03:55:24;99671.72;;;1.03;100.00
47726;BME280;33483;48.294;16.388;2023-04-08T03:57:51;99676.91;;;1.01;100.00
47726;BME280;33483;48.294;16.388;2023-04-08T04:00:18;99682.38;;;1.01;100.00
47726;BME280;33483;48.294;16.388;2023-04-08T04:02:45;99680.53;;;0.98;100.00
47726;BME280;33483;48.294;16.388;2023-04-08T04:05:13;99684.03;;;0.98;100.00
47726;BME280;33483;48.294;16.388;2023-04-08T04:07:41;99684.50;;;0.97;100.00
47726;BME280;33483;48.294;16.388;2023-04-08T04:10:08;99685.84;;;0.92;100.00
47726;BME280;33483;48.294;16.388;2023-04-08T04:12:36;99682.69;;;0.94;100.00
47726;BME280;33483;48.294;16.388;2023-04-08T04:15:04;99686.44;;;0.96;100.00
47726;BME280;33483;48.294;16.388;2023-04-08T04:17:31;99692.38;;;0.95;100.00
47726;BME280;33483;48.294;16.388;2023-04-08T04:19:58;99692.69;;;0.97;100.00
47726;BME280;33483;48.294;16.388;2023-04-08T04:22:25;99699.06;;;0.94;100.00
47726;BME280;33483;48.294;16.388;2023-04-08T04:24:53;99697.22;;;1.00;100.00
47726;BME280;33483;48.294;16.388;2023-04-08T04:27:20;99698.91;;;0.97;100.00
47726;BME280;33483;48.294;16.388;2023-04-08T04:29:47;99699.00;;;1.03;100.00
47726;BME280;33483;48.294;16.388;2023-04-08T04:32:14;99697.66;;;1.07;100.00
47726;BME280;33483;48.294;16.388;2023-04-08T04:34:42;99701.88;;;1.08;100.00
47726;BME280;33483;48.294;16.388;2023-04-08T04:37:10;99697.66;;;1.07;100.00
47726;BME280;33483;48.294;16.388;2023-04-08T04:39:38;99706.72;;;1.13;100.00
47726;BME280;33483;48.294;16.388;2023-04-08T04:42:06;99702.31;;;1.16;100.00
47726;BME280;33483;48.294;16.388;2023-04-08T04:44:34;99707.91;;;1.22;100.00
47726;BME280;33483;48.294;16.388;2023-04-08T04:47:01;99712.63;;;1.21;100.00
47726;BME280;33483;48.294;16.388;2023-04-08T04:49:33;99711.69;;;1.24;100.00
47726;BME280;33483;48.294;16.388;2023-04-08T04:52:00;99719.41;;;1.26;100.00
47726;BME280;33483;48.294;16.388;2023-04-08T04:54:30;99717.00;;;1.28;100.00
47726;BME280;33483;48.294;16.388;2023-04-08T04:56:57;99718.97;;;1.27;100.00
47726;BME280;33483;48.294;16.388;2023-04-08T04:59:25;99715.63;;;1.32;100.00
47726;BME280;33483;48.294;16.388;2023-04-08T05:01:54;99721.97;;;1.38;100.00
47726;BME280;33483;48.294;16.388;2023-04-08T05:04:24;99726.78;;;1.43;100.00
47726;BME280;33483;48.294;16.388;2023-04-08T05:06:51;99727.09;;;1.45;100.00
47726;BME280;33483;48.294;16.388;2023-04-08T05:09:19;99732.56;;;1.45;100.00
47726;BME280;33483;48.294;16.388;2023-04-08T05:11:46;99737.56;;;1.47;100.00
47726;BME280;33483;48.294;16.388;2023-04-08T05:14:13;99731.81;;;1.45;100.00
47726;BME280;33483;48.294;16.388;2023-04-08T05:16:40;99741.66;;;1.51;100.00
47726;BME280;33483;48.294;16.388;2023-04-08T05:19:07;99739.94;;;1.54;100.00
47726;BME280;33483;48.294;16.388;2023-04-08T05:21:35;99741.00;;;1.56;100.00
47726;BME280;33483;48.294;16.388;2023-04-08T05:24:07;99739.31;;;1.59;100.00
47726;BME280;33483;48.294;16.388;2023-04-08T05:26:35;99743.88;;;1.62;100.00
47726;BME280;33483;48.294;16.388;2023-04-08T05:29:03;99753.41;;;1.66;100.00
47726;BME280;33483;48.294;16.388;2023-04-08T05:31:31;99747.78;;;1.70;100.00
47726;BME280;33483;48.294;16.388;2023-04-08T05:34:00;99750.66;;;1.75;100.00
47726;BME280;33483;48.294;16.388;2023-04-08T05:36:28;99755.66;;;1.77;100.00
47726;BME280;33483;48.294;16.388;2023-04-08T05:38:58;99749.72;;;1.78;100.00
47726;BME280;33483;48.294;16.388;2023-04-08T05:41:27;99760.78;;;1.84;100.00
47726;BME280;33483;48.294;16.388;2023-04-08T05:43:54;99769.44;;;1.82;100.00
47726;BME280;33483;48.294;16.388;2023-04-08T05:46:21;99772.31;;;1.88;100.00
47726;BME280;33483;48.294;16.388;2023-04-08T05:48:49;99780.66;;;1.84;100.00
47726;BME280;33483;48.294;16.388;2023-04-08T05:51:18;99777.59;;;1.91;100.00
47726;BME280;33483;48.294;16.388;2023-04-08T05:53:45;99774.22;;;1.96;100.00
47726;BME280;33483;48.294;16.388;2023-04-08T05:56:13;99774.53;;;1.98;100.00
47726;BME280;33483;48.294;16.388;2023-04-08T05:58:41;99778.28;;;2.01;100.00
47726;BME280;33483;48.294;16.388;2023-04-08T06:01:08;99782.25;;;2.00;100.00
47726;BME280;33483;48.294;16.388;2023-04-08T06:03:35;99785.59;;;2.04;100.00
47726;BME280;33483;48.294;16.388;2023-04-08T06:06:03;99778.13;;;2.04;100.00
47726;BME280;33483;48.294;16.388;2023-04-08T06:08:30;99784.34;;;2.05;100.00
47726;BME280;33483;48.294;16.388;2023-04-08T06:10:59;99787.22;;;2.10;100.00
47726;BME280;33483;48.294;16.388;2023-04-08T06:13:29;99786.63;;;2.06;100.00
47726;BME280;33483;48.294;16.388;2023-04-08T06:15:57;99791.31;;;2.06;100.00
47726;BME280;33483;48.294;16.388;2023-04-08T06:18:24;99791.91;;;2.10;100.00
47726;BME280;33483;48.294;16.388;2023-04-08T06:20:51;99792.25;;;2.03;100.00
47726;BME280;33483;48.294;16.388;2023-04-08T06:23:19;99791.16;;;2.09;100.00
47726;BME280;33483;48.294;16.388;2023-04-08T06:25:47;99798.72;;;2.14;100.00
47726;BME280;33483;48.294;16.388;2023-04-08T06:28:15;99791.75;;;2.13;100.00
47726;BME280;33483;48.294;16.388;2023-04-08T06:30:43;99806.19;;;2.14;100.00
47726;BME280;33483;48.294;16.388;2023-04-08T06:33:10;99806.91;;;2.14;100.00
47726;BME280;33483;48.294;16.388;2023-04-08T06:35:37;99806.00;;;2.17;100.00
47726;BME280;33483;48.294;16.388;2023-04-08T06:38:04;99815.88;;;2.15;100.00
47726;BME280;33483;48.294;16.388;2023-04-08T06:40:32;99817.25;;;2.19;100.00
47726;BME280;33483;48.294;16.388;2023-04-08T06:43:00;99813.88;;;2.24;100.00
47726;BME280;33483;48.294;16.388;2023-04-08T06:45:33;99815.97;;;2.29;100.00
47726;BME280;33483;48.294;16.388;2023-04-08T06:48:01;99811.84;;;2.34;100.00
47726;BME280;33483;48.294;16.388;2023-04-08T06:50:31;99814.22;;;2.41;100.00
47726;BME280;33483;48.294;16.388;2023-04-08T06:52:59;99815.97;;;2.53;100.00
47726;BME280;33483;48.294;16.388;2023-04-08T06:55:26;99818.69;;;2.53;100.00
47726;BME280;33483;48.294;16.388;2023-04-08T06:57:53;99821.84;;;2.61;100.00
47726;BME280;33483;48.294;16.388;2023-04-08T07:00:21;99824.00;;;2.57;100.00
47726;BME280;33483;48.294;16.388;2023-04-08T07:02:55;99831.69;;;2.67;100.00
47726;BME280;33483;48.294;16.388;2023-04-08T07:05:22;99831.72;;;2.58;100.00
47726;BME280;33483;48.294;16.388;2023-04-08T07:07:50;99837.16;;;2.67;100.00
47726;BME280;33483;48.294;16.388;2023-04-08T07:10:18;99840.34;;;2.66;100.00
47726;BME280;33483;48.294;16.388;2023-04-08T07:12:46;99840.66;;;2.68;100.00
47726;BME280;33483;48.294;16.388;2023-04-08T07:15:15;99831.78;;;2.73;100.00
47726;BME280;33483;48.294;16.388;2023-04-08T07:17:43;99838.78;;;2.74;100.00
47726;BME280;33483;48.294;16.388;2023-04-08T07:20:13;99842.38;;;2.80;100.00
47726;BME280;33483;48.294;16.388;2023-04-08T07:22:42;99847.22;;;2.85;100.00
47726;BME280;33483;48.294;16.388;2023-04-08T07:25:09;99844.66;;;2.81;100.00
47726;BME280;33483;48.294;16.388;2023-04-08T07:27:36;99843.88;;;2.81;100.00
47726;BME280;33483;48.294;16.388;2023-04-08T07:30:04;99856.38;;;2.82;100.00
47726;BME280;33483;48.294;16.388;2023-04-08T07:32:32;99861.38;;;2.83;100.00
47726;BME280;33483;48.294;16.388;2023-04-08T07:35:00;99862.78;;;2.79;100.00
47726;BME280;33483;48.294;16.388;2023-04-08T07:37:28;99865.34;;;2.82;100.00
47726;BME280;33483;48.294;16.388;2023-04-08T07:39:58;99870.06;;;2.82;100.00
47726;BME280;33483;48.294;16.388;2023-04-08T07:42:25;99870.91;;;2.88;100.00
47726;BME280;33483;48.294;16.388;2023-04-08T07:44:53;99867.78;;;2.80;100.00
47726;BME280;33483;48.294;16.388;2023-04-08T07:47:21;99869.59;;;2.83;100.00
47726;BME280;33483;48.294;16.388;2023-04-08T07:49:48;99877.19;;;2.79;100.00
47726;BME280;33483;48.294;16.388;2023-04-08T07:52:16;99873.19;;;2.89;100.00
47726;BME280;33483;48.294;16.388;2023-04-08T07:54:45;99886.28;;;2.85;100.00
47726;BME280;33483;48.294;16.388;2023-04-08T07:57:13;99887.06;;;2.86;100.00
47726;BME280;33483;48.294;16.388;2023-04-08T07:59:42;99889.63;;;2.89;100.00
47726;BME280;33483;48.294;16.388;2023-04-08T08:02:19;99894.28;;;2.98;100.00
47726;BME280;33483;48.294;16.388;2023-04-08T08:04:46;99897.19;;;2.94;100.00
47726;BME280;33483;48.294;16.388;2023-04-08T08:07:14;99893.44;;;3.06;100.00
47726;BME280;33483;48.294;16.388;2023-04-08T08:09:41;99891.00;;;3.08;100.00
47726;BME280;33483;48.294;16.388;2023-04-08T08:12:10;99892.63;;;3.15;100.00
47726;BME280;33483;48.294;16.388;2023-04-08T08:14:37;99901.97;;;3.23;100.00
47726;BME280;33483;48.294;16.388;2023-04-08T08:17:06;99907.81;;;3.16;100.00
47726;BME280;33483;48.294;16.388;2023-04-08T08:19:34;99906.38;;;3.06;100.00
47726;BME280;33483;48.294;16.388;2023-04-08T08:22:01;99902.50;;;3.12;100.00
47726;BME280;33483;48.294;16.388;2023-04-08T08:24:29;99906.31;;;3.15;100.00
47726;BME280;33483;48.294;16.388;2023-04-08T08:26:58;99915.72;;;3.14;100.00
47726;BME280;33483;48.294;16.388;2023-04-08T08:29:27;99915.38;;;3.21;100.00
47726;BME280;33483;48.294;16.388;2023-04-08T08:31:55;99921.25;;;3.28;100.00
47726;BME280;33483;48.294;16.388;2023-04-08T08:34:22;99924.13;;;3.34;100.00
47726;BME280;33483;48.294;16.388;2023-04-08T08:36:55;99932.56;;;3.45;100.00
47726;BME280;33483;48.294;16.388;2023-04-08T08:39:22;99927.88;;;3.36;100.00
47726;BME280;33483;48.294;16.388;2023-04-08T08:41:50;99932.03;;;3.32;100.00
47726;BME280;33483;48.294;16.388;2023-04-08T08:44:17;99937.53;;;3.32;100.00
47726;BME280;33483;48.294;16.388;2023-04-08T08:46:46;99929.22;;;3.41;100.00
47726;BME280;33483;48.294;16.388;2023-04-08T08:49:14;99941.13;;;3.38;100.00
47726;BME280;33483;48.294;16.388;2023-04-08T08:51:44;99938.47;;;3.43;100.00
47726;BME280;33483;48.294;16.388;2023-04-08T08:54:13;99941.81;;;3.47;100.00
47726;BME280;33483;48.294;16.388;2023-04-08T08:56:41;99941.34;;;3.49;100.00
47726;BME280;33483;48.294;16.388;2023-04-08T08:59:08;99948.22;;;3.44;100.00
47726;BME280;33483;48.294;16.388;2023-04-08T09:01:39;99947.25;;;3.33;100.00
47726;BME280;33483;48.294;16.388;2023-04-08T09:04:08;99952.09;;;3.38;100.00
47726;BME280;33483;48.294;16.388;2023-04-08T09:06:37;99952.28;;;3.34;100.00
47726;BME280;33483;48.294;16.388;2023-04-08T09:09:04;99957.56;;;3.38;100.00
47726;BME280;33483;48.294;16.388;2023-04-08T09:11:40;99964.50;;;3.48;100.00
47726;BME280;33483;48.294;16.388;2023-04-08T09:14:20;99971.00;;;3.51;100.00
47726;BME280;33483;48.294;16.388;2023-04-08T09:16:49;99975.16;;;3.46;100.00
47726;BME280;33483;48.294;16.388;2023-04-08T09:19:16;99975.69;;;3.59;100.00
47726;BME280;33483;48.294;16.388;2023-04-08T09:21:43;99980.22;;;3.62;100.00
47726;BME280;33483;48.294;16.388;2023-04-08T09:24:25;99985.16;;;3.49;100.00
47726;BME280;33483;48.294;16.388;2023-04-08T09:26:53;99988.78;;;3.55;100.00
47726;BME280;33483;48.294;16.388;2023-04-08T09:29:22;99983.72;;;3.39;100.00
47726;BME280;33483;48.294;16.388;2023-04-08T09:31:56;99986.88;;;3.47;100.00
47726;BME280;33483;48.294;16.388;2023-04-08T09:34:24;99986.91;;;3.61;100.00
47726;BME280;33483;48.294;16.388;2023-04-08T09:36:52;99992.59;;;3.72;100.00
47726;BME280;33483;48.294;16.388;2023-04-08T09:39:20;99995.09;;;3.85;100.00
47726;BME280;33483;48.294;16.388;2023-04-08T09:41:48;99996.81;;;3.97;100.00
47726;BME280;33483;48.294;16.388;2023-04-08T09:44:19;99994.91;;;4.17;100.00
47726;BME280;33483;48.294;16.388;2023-04-08T09:49:37;99989.50;;;4.52;100.00
47726;BME280;33483;48.294;16.388;2023-04-08T09:52:08;99998.59;;;4.58;100.00
47726;BME280;33483;48.294;16.388;2023-04-08T09:57:13;100002.75;;;4.53;100.00
47726;BME280;33483;48.294;16.388;2023-04-08T09:59:44;100001.06;;;4.41;100.00
47726;BME280;33483;48.294;16.388;2023-04-08T10:02:15;100007.50;;;4.53;100.00
47726;BME280;33483;48.294;16.388;2023-04-08T10:04:46;100002.75;;;4.53;100.00
47726;BME280;33483;48.294;16.388;2023-04-08T10:07:15;100000.03;;;4.39;100.00
47726;BME280;33483;48.294;16.388;2023-04-08T10:09:44;100009.28;;;4.41;100.00
47726;BME280;33483;48.294;16.388;2023-04-08T10:12:12;100005.44;;;4.33;100.00
47726;BME280;33483;48.294;16.388;2023-04-08T10:14:39;100008.84;;;4.28;100.00
47726;BME280;33483;48.294;16.388;2023-04-08T10:17:25;100011.19;;;4.21;100.00
47726;BME280;33483;48.294;16.388;2023-04-08T10:19:53;100006.84;;;4.14;100.00
47726;BME280;33483;48.294;16.388;2023-04-08T10:27:43;100013.47;;;4.22;100.00
47726;BME280;33483;48.294;16.388;2023-04-08T10:32:59;100003.63;;;4.30;100.00
47726;BME280;33483;48.294;16.388;2023-04-08T10:35:30;100011.75;;;4.39;100.00
47726;BME280;33483;48.294;16.388;2023-04-08T10:38:01;100018.00;;;4.40;100.00
47726;BME280;33483;48.294;16.388;2023-04-08T10:40:34;100011.09;;;4.44;100.00
47726;BME280;33483;48.294;16.388;2023-04-08T10:43:05;100018.09;;;4.45;100.00
47726;BME280;33483;48.294;16.388;2023-04-08T10:45:33;100020.84;;;4.45;100.00
47726;BME280;33483;48.294;16.388;2023-04-08T10:48:20;100022.34;;;4.46;100.00
47726;BME280;33483;48.294;16.388;2023-04-08T10:50:54;100024.72;;;4.53;100.00
47726;BME280;33483;48.294;16.388;2023-04-08T10:53:23;100029.28;;;4.56;100.00
47726;BME280;33483;48.294;16.388;2023-04-08T10:55:51;100031.34;;;4.62;100.00
47726;BME280;33483;48.294;16.388;2023-04-08T10:58:19;100032.00;;;4.56;100.00
47726;BME280;33483;48.294;16.388;2023-04-08T11:00:48;100023.06;;;4.76;100.00
47726;BME280;33483;48.294;16.388;2023-04-08T11:03:17;100033.94;;;5.00;100.00
47726;BME280;33483;48.294;16.388;2023-04-08T11:05:45;100038.53;;;5.08;100.00
47726;BME280;33483;48.294;16.388;2023-04-08T11:08:13;100033.34;;;4.96;100.00
47726;BME280;33483;48.294;16.388;2023-04-08T11:10:40;100038.19;;;5.01;100.00
47726;BME280;33483;48.294;16.388;2023-04-08T11:13:11;100031.75;;;5.04;100.00
47726;BME280;33483;48.294;16.388;2023-04-08T11:15:39;100042.38;;;4.96;100.00
47726;BME280;33483;48.294;16.388;2023-04-08T11:18:09;100041.03;;;4.92;100.00
47726;BME280;33483;48.294;16.388;2023-04-08T11:20:36;100042.56;;;4.93;100.00
47726;BME280;33483;48.294;16.388;2023-04-08T11:23:11;100044.66;;;4.83;100.00
47726;BME280;33483;48.294;16.388;2023-04-08T11:25:39;100042.56;;;4.78;100.00
47726;BME280;33483;48.294;16.388;2023-04-08T11:28:07;100045.41;;;4.84;100.00
47726;BME280;33483;48.294;16.388;2023-04-08T11:30:34;100048.44;;;4.86;100.00
47726;BME280;33483;48.294;16.388;2023-04-08T11:33:02;100046.53;;;4.92;100.00
47726;BME280;33483;48.294;16.388;2023-04-08T11:35:30;100047.66;;;5.00;100.00
47726;BME280;33483;48.294;16.388;2023-04-08T11:37:57;100044.53;;;5.07;100.00
47726;BME280;33483;48.294;16.388;2023-04-08T11:40:24;100050.03;;;5.27;100.00
47726;BME280;33483;48.294;16.388;2023-04-08T11:42:52;100046.19;;;5.39;100.00
47726;BME280;33483;48.294;16.388;2023-04-08T11:45:20;100048.13;;;5.33;100.00
47726;BME280;33483;48.294;16.388;2023-04-08T11:47:47;100048.28;;;5.44;100.00
47726;BME280;33483;48.294;16.388;2023-04-08T11:50:22;100042.34;;;5.51;100.00
47726;BME280;33483;48.294;16.388;2023-04-08T11:52:52;100037.91;;;5.73;100.00
47726;BME280;33483;48.294;16.388;2023-04-08T11:55:23;100042.97;;;5.81;100.00
47726;BME280;33483;48.294;16.388;2023-04-08T11:57:52;100045.59;;;5.69;100.00
47726;BME280;33483;48.294;16.388;2023-04-08T12:00:19;100047.66;;;5.74;100.00
47726;BME280;33483;48.294;16.388;2023-04-08T12:02:48;100044.16;;;5.74;100.00
47726;BME280;33483;48.294;16.388;2023-04-08T12:05:15;100037.94;;;5.79;100.00
47726;BME280;33483;48.294;16.388;2023-04-08T12:07:43;100042.03;;;5.63;100.00
47726;BME280;33483;48.294;16.388;2023-04-08T12:10:11;100044.25;;;5.59;100.00
47726;BME280;33483;48.294;16.388;2023-04-08T12:12:39;100042.16;;;5.54;100.00
47726;BME280;33483;48.294;16.388;2023-04-08T12:15:07;100048.63;;;5.51;100.00
47726;BME280;33483;48.294;16.388;2023-04-08T12:17:35;100042.50;;;5.62;100.00
47726;BME280;33483;48.294;16.388;2023-04-08T12:20:04;100048.34;;;5.49;100.00
47726;BME280;33483;48.294;16.388;2023-04-08T12:22:32;100049.59;;;5.48;100.00
47726;BME280;33483;48.294;16.388;2023-04-08T12:25:00;100045.31;;;5.47;100.00
47726;BME280;33483;48.294;16.388;2023-04-08T12:27:29;100047.81;;;5.45;100.00
47726;BME280;33483;48.294;16.388;2023-04-08T12:29:59;100048.97;;;5.59;100.00
47726;BME280;33483;48.294;16.388;2023-04-08T12:32:27;100051.53;;;5.83;100.00
47726;BME280;33483;48.294;16.388;2023-04-08T12:34:54;100043.13;;;5.92;100.00
47726;BME280;33483;48.294;16.388;2023-04-08T12:37:27;100055.34;;;6.11;100.00
47726;BME280;33483;48.294;16.388;2023-04-08T12:39:54;100050.09;;;6.33;100.00
47726;BME280;33483;48.294;16.388;2023-04-08T12:42:22;100050.94;;;6.44;100.00
47726;BME280;33483;48.294;16.388;2023-04-08T12:44:49;100058.38;;;6.64;100.00
47726;BME280;33483;48.294;16.388;2023-04-08T12:47:17;100059.69;;;6.74;100.00
47726;BME280;33483;48.294;16.388;2023-04-08T12:49:44;100057.44;;;6.72;100.00
47726;BME280;33483;48.294;16.388;2023-04-08T12:52:16;100054.06;;;6.89;100.00
47726;BME280;33483;48.294;16.388;2023-04-08T12:54:43;100059.81;;;6.91;100.00
47726;BME280;33483;48.294;16.388;2023-04-08T12:57:11;100064.63;;;6.96;100.00
47726;BME280;33483;48.294;16.388;2023-04-08T12:59:38;100059.69;;;7.05;100.00
47726;BME280;33483;48.294;16.388;2023-04-08T13:02:07;100064.50;;;6.79;100.00
47726;BME280;33483;48.294;16.388;2023-04-08T13:04:34;100057.28;;;6.81;100.00
47726;BME280;33483;48.294;16.388;2023-04-08T13:07:01;100066.75;;;6.80;100.00
47726;BME280;33483;48.294;16.388;2023-04-08T13:09:30;100062.56;;;6.85;100.00
47726;BME280;33483;48.294;16.388;2023-04-08T13:11:57;100058.41;;;6.69;100.00